Time;durP1;ratioP1;P1;durP2;ratioP2;P2;SDS_P1;SDS_P2;PMS_P1;PMS_P2;Temp;Humidity;BMP_temperature;BMP_pressure;BME280_temperature;BME280_humidity;BME280_pressure;Samples;Min_cycle;Max_cycle;Signal;HPM_P1;HPM_P2
2020/12/10 00:00:30;;;;;;;19.55;12.10;;;;;;;3.36;80.43;98681.16;5073652;28;20201;-66
2020/12/10 00:02:56;;;;;;;28.13;14.40;;;;;;;3.41;80.53;98672.97;5073270;28;20207;-65
2020/12/10 00:05:23;;;;;;;23.27;14.73;;;;;;;3.40;80.26;98671.28;5073642;28;20292;-66
2020/12/10 00:07:49;;;;;;;25.13;14.65;;;;;;;3.22;81.18;98662.28;5072738;28;20701;-66
2020/12/10 00:10:16;;;;;;;23.77;15.68;;;;;;;3.24;81.46;98650.66;5073141;28;20189;-66
2020/12/10 00:12:44;;;;;;;24.08;15.48;;;;;;;3.28;81.23;98654.06;5072829;28;20635;-65
2020/12/10 00:15:12;;;;;;;22.70;15.18;;;;;;;3.24;81.26;98642.66;5073035;28;20317;-66
2020/12/10 00:17:38;;;;;;;31.48;17.33;;;;;;;3.17;81.29;98638.53;5072916;28;20653;-65
2020/12/10 00:20:06;;;;;;;23.40;15.10;;;;;;;3.47;80.12;98632.81;5073322;28;20692;-66
2020/12/10 00:22:34;;;;;;;25.50;15.40;;;;;;;3.38;80.52;98638.53;5093047;28;20204;-66
2020/12/10 00:25:00;;;;;;;25.25;15.30;;;;;;;3.28;80.84;98628.31;5093279;28;20190;-67
2020/12/10 00:27:28;;;;;;;22.02;14.63;;;;;;;3.19;81.77;98615.41;5093474;28;20516;-67
2020/12/10 00:29:57;;;;;;;24.60;14.93;;;;;;;3.13;82.21;98616.53;5078251;28;20239;-66
2020/12/10 00:32:24;;;;;;;23.42;15.20;;;;;;;3.15;82.44;98604.97;5073368;28;21052;-67
2020/12/10 00:34:51;;;;;;;23.67;15.80;;;;;;;3.23;81.67;98600.16;5073304;28;20543;-66
2020/12/10 00:37:18;;;;;;;23.77;15.23;;;;;;;3.27;81.32;98601.75;5072231;28;20203;-67
2020/12/10 00:39:44;;;;;;;22.80;14.35;;;;;;;3.18;81.43;98612.81;5072239;28;20902;-66
2020/12/10 00:42:10;;;;;;;21.45;14.13;;;;;;;3.10;81.72;98602.50;5072681;28;20214;-67
2020/12/10 00:44:38;;;;;;;21.08;13.98;;;;;;;3.18;81.59;98595.03;5072963;28;20201;-66
2020/12/10 00:47:04;;;;;;;24.60;14.85;;;;;;;3.07;82.05;98600.81;5073281;28;20227;-66
2020/12/10 00:49:30;;;;;;;19.27;14.13;;;;;;;3.17;81.86;98603.09;5072623;28;20621;-66
2020/12/10 00:51:57;;;;;;;22.92;14.68;;;;;;;3.19;81.66;98591.47;5072480;28;20240;-65
2020/12/10 00:54:23;;;;;;;22.85;13.90;;;;;;;2.96;82.26;98599.56;5072513;28;20200;-66
2020/12/10 00:56:49;;;;;;;21.80;13.68;;;;;;;3.05;82.24;98592.06;5072081;28;20191;-65
2020/12/10 00:59:16;;;;;;;25.48;14.77;;;;;;;2.98;82.52;98595.03;5071999;28;20259;-66
2020/12/10 01:01:45;;;;;;;21.33;13.95;;;;;;;2.94;83.11;98589.03;5071913;28;20204;-65
2020/12/10 01:04:13;;;;;;;22.85;14.10;;;;;;;2.88;82.88;98570.66;5087449;28;20187;-66
2020/12/10 01:06:39;;;;;;;24.80;14.35;;;;;;;3.03;82.53;98572.66;5092670;28;20648;-66
2020/12/10 01:09:07;;;;;;;24.17;14.95;;;;;;;3.10;82.07;98573.25;5077346;28;20209;-65
2020/12/10 01:11:34;;;;;;;25.00;16.67;;;;;;;3.11;81.79;98567.84;5072175;28;20221;-65
2020/12/10 01:14:00;;;;;;;22.60;14.43;;;;;;;3.06;82.00;98566.34;5071968;28;20208;-65
2020/12/10 01:16:27;;;;;;;23.55;14.77;;;;;;;2.93;82.26;98555.38;5072198;28;20533;-66
2020/12/10 01:18:54;;;;;;;26.05;16.10;;;;;;;2.81;82.83;98559.44;5071874;28;20198;-66
2020/12/10 01:21:31;;;;;;;22.88;13.90;;;;;;;2.97;82.43;98554.31;5071798;28;20204;-66
2020/12/10 01:23:58;;;;;;;25.83;15.18;;;;;;;2.96;81.89;98552.56;5072246;28;20271;-68
2020/12/10 01:26:25;;;;;;;24.88;16.30;;;;;;;2.91;81.99;98549.25;5072297;28;20272;-66
2020/12/10 01:28:52;;;;;;;23.95;14.93;;;;;;;3.01;82.23;98552.34;5085874;28;20247;-65
2020/12/10 01:31:19;;;;;;;23.40;15.23;;;;;;;3.07;81.83;98557.41;5091950;28;20206;-66
2020/12/10 01:33:45;;;;;;;20.08;13.63;;;;;;;2.99;81.88;98555.09;5092457;28;20546;-66
2020/12/10 01:36:19;;;;;;;24.77;14.65;;;;;;;2.88;82.20;98549.38;5092216;28;20209;-66
2020/12/10 01:38:46;;;;;;;26.75;14.57;;;;;;;2.99;82.12;98554.25;5083124;28;20278;-66
2020/12/10 01:41:13;;;;;;;20.45;14.93;;;;;;;3.11;81.96;98551.88;5071665;28;20193;-66
2020/12/10 01:43:39;;;;;;;22.23;14.98;;;;;;;3.05;81.53;98548.63;5071660;28;20228;-66
2020/12/10 01:46:06;;;;;;;24.40;14.95;;;;;;;2.89;82.34;98553.75;5071714;28;20240;-65
2020/12/10 01:48:33;;;;;;;22.52;14.82;;;;;;;2.98;82.21;98553.34;5071934;28;20220;-66
2020/12/10 01:50:59;;;;;;;21.70;14.30;;;;;;;3.04;81.70;98545.13;5072143;28;20200;-65
2020/12/10 01:53:26;;;;;;;23.77;14.77;;;;;;;3.02;81.54;98546.97;5071933;28;20201;-66
2020/12/10 01:55:53;;;;;;;25.55;16.02;;;;;;;3.07;81.77;98546.78;5072037;28;20625;-66
2020/12/10 01:58:19;;;;;;;22.67;15.18;;;;;;;3.05;81.54;98538.88;5083434;28;20609;-66
2020/12/10 02:00:45;;;;;;;23.75;15.85;;;;;;;2.91;82.11;98527.97;5091083;28;20282;-66
2020/12/10 02:03:12;;;;;;;23.15;15.15;;;;;;;2.92;82.05;98538.56;5092149;28;20604;-66
2020/12/10 02:05:42;;;;;;;26.95;16.00;;;;;;;2.90;82.55;98540.41;5091705;28;20208;-65
2020/12/10 02:08:09;;;;;;;24.20;15.13;;;;;;;2.94;82.09;98535.84;5082751;28;20213;-66
2020/12/10 02:10:36;;;;;;;24.38;15.80;;;;;;;3.01;81.80;98531.09;5071749;28;20366;-66
2020/12/10 02:13:03;;;;;;;20.77;14.15;;;;;;;3.01;81.68;98531.97;5072219;28;20216;-66
2020/12/10 02:15:29;;;;;;;24.08;14.93;;;;;;;3.22;80.54;98527.47;5075760;28;20209;-66
2020/12/10 02:17:55;;;;;;;22.05;14.57;;;;;;;3.02;81.12;98523.03;5075264;28;20210;-66
2020/12/10 02:20:22;;;;;;;21.73;14.30;;;;;;;3.08;81.29;98527.25;5075327;28;20276;-66
2020/12/10 02:23:02;;;;;;;24.13;14.30;;;;;;;3.13;81.05;98522.56;5075566;28;20705;-65
2020/12/10 02:25:30;;;;;;;21.70;13.93;;;;;;;3.15;80.88;98518.06;5075194;28;20231;-66
2020/12/10 02:27:59;;;;;;;24.42;15.15;;;;;;;3.08;80.93;98514.81;5075683;28;20216;-66
2020/12/10 02:30:25;;;;;;;20.27;13.57;;;;;;;3.13;80.81;98517.25;5076410;28;20233;-66
2020/12/10 02:32:56;;;;;;;22.40;14.93;;;;;;;3.13;81.07;98517.25;5076621;28;20232;-66
2020/12/10 02:35:26;;;;;;;24.35;15.10;;;;;;;3.04;81.20;98518.53;5074878;28;20181;-66
2020/12/10 02:37:54;;;;;;;22.27;14.27;;;;;;;3.16;80.51;98508.28;5074911;28;20549;-66
2020/12/10 02:40:20;;;;;;;21.35;14.65;;;;;;;2.98;80.81;98510.81;5074346;28;20191;-66
2020/12/10 02:42:47;;;;;;;20.48;13.20;;;;;;;3.07;80.88;98504.22;5074653;28;20203;-66
2020/12/10 02:45:13;;;;;;;19.00;13.52;;;;;;;3.13;80.40;98491.50;5074694;28;20211;-66
2020/12/10 02:47:39;;;;;;;23.50;14.02;;;;;;;3.10;80.52;98491.66;5075060;28;20246;-65
2020/12/10 02:50:05;;;;;;;22.17;14.20;;;;;;;2.97;80.57;98493.16;5074658;28;20185;-66
2020/12/10 02:52:32;;;;;;;21.75;13.75;;;;;;;2.78;81.63;98479.81;5075005;28;20630;-66
2020/12/10 02:54:59;;;;;;;20.00;13.48;;;;;;;2.90;81.42;98476.59;5074571;28;20201;-66
2020/12/10 02:57:25;;;;;;;21.00;14.60;;;;;;;2.79;81.67;98472.69;5085997;28;20223;-65
2020/12/10 02:59:51;;;;;;;20.23;13.13;;;;;;;2.77;82.00;98472.75;5094842;28;20705;-65
2020/12/10 03:02:17;;;;;;;21.48;14.90;;;;;;;2.78;81.87;98465.66;5095023;28;20196;-66
2020/12/10 03:04:43;;;;;;;22.73;14.77;;;;;;;2.73;82.11;98468.50;5095034;28;20216;-66
2020/12/10 03:07:10;;;;;;;22.05;14.77;;;;;;;2.66;82.27;98464.41;5094332;28;20199;-65
2020/12/10 03:09:36;;;;;;;21.60;14.60;;;;;;;2.72;82.00;98459.69;5074192;28;20298;-65
2020/12/10 03:12:03;;;;;;;22.70;14.20;;;;;;;2.83;81.48;98459.22;5074323;28;20189;-66
2020/12/10 03:14:29;;;;;;;18.92;11.98;;;;;;;2.78;81.80;98457.66;5074645;28;20303;-66
2020/12/10 03:16:55;;;;;;;21.20;14.23;;;;;;;2.65;82.40;98455.56;5074771;28;20605;-65
2020/12/10 03:19:21;;;;;;;21.67;13.82;;;;;;;2.72;82.64;98453.50;5074527;28;20201;-66
2020/12/10 03:21:48;;;;;;;21.83;14.60;;;;;;;2.83;81.89;98445.06;5074167;28;20206;-66
2020/12/10 03:24:14;;;;;;;25.02;14.40;;;;;;;2.85;81.83;98440.50;5091562;28;20254;-65
2020/12/10 03:26:40;;;;;;;21.27;14.63;;;;;;;2.72;82.18;98443.72;5094381;28;20188;-66
2020/12/10 03:29:09;;;;;;;22.95;15.18;;;;;;;2.74;82.82;98446.31;5094450;28;20274;-66
2020/12/10 03:31:36;;;;;;;21.48;13.45;;;;;;;2.53;83.71;98440.16;5084341;28;20215;-66
2020/12/10 03:34:02;;;;;;;22.52;14.25;;;;;;;2.53;84.31;98434.84;5074339;28;20323;-65
2020/12/10 03:36:31;;;;;;;22.13;14.07;;;;;;;2.40;85.17;98423.91;5074279;28;20196;-66
2020/12/10 03:38:57;;;;;;;20.45;13.60;;;;;;;2.32;86.00;98419.84;5073694;28;20228;-65
2020/12/10 03:41:23;;;;;;;22.77;13.75;;;;;;;2.34;86.18;98416.19;5074008;28;20208;-66
2020/12/10 03:43:49;;;;;;;24.42;13.38;;;;;;;2.28;86.01;98413.78;5074416;28;20228;-66
2020/12/10 03:46:16;;;;;;;21.45;13.10;;;;;;;2.37;86.09;98409.88;5074183;28;20700;-65
2020/12/10 03:48:43;;;;;;;21.38;13.88;;;;;;;2.36;85.98;98408.16;5073812;28;20205;-66
2020/12/10 03:51:09;;;;;;;21.48;15.00;;;;;;;2.38;86.15;98417.78;5073609;28;20236;-66
2020/12/10 03:53:35;;;;;;;25.35;14.02;;;;;;;2.29;86.30;98408.44;5087761;28;20200;-66
2020/12/10 03:56:01;;;;;;;25.20;13.73;;;;;;;2.39;86.04;98400.03;5093941;28;20565;-66
2020/12/10 03:58:28;;;;;;;18.98;12.98;;;;;;;2.19;86.59;98398.25;5093681;28;20259;-65
2020/12/10 04:00:54;;;;;;;21.67;13.30;;;;;;;2.23;86.93;98397.19;5093892;28;20184;-66
2020/12/10 04:03:21;;;;;;;21.67;13.57;;;;;;;2.32;86.68;98399.44;5093586;28;20204;-65
2020/12/10 04:05:47;;;;;;;23.02;13.82;;;;;;;2.28;86.52;98392.53;5094062;28;20620;-65
2020/12/10 04:08:13;;;;;;;22.60;14.30;;;;;;;2.32;86.22;98391.47;5091582;28;20224;-66
2020/12/10 04:10:40;;;;;;;18.98;13.85;;;;;;;2.34;85.99;98392.28;5073394;28;20212;-66
2020/12/10 04:13:06;;;;;;;20.98;12.98;;;;;;;2.35;85.86;98394.00;5073112;28;20204;-66
2020/12/10 04:15:32;;;;;;;21.55;13.18;;;;;;;2.27;86.05;98386.38;5072958;28;20200;-66
2020/12/10 04:17:59;;;;;;;21.83;13.55;;;;;;;2.26;85.75;98382.00;5072822;28;20207;-65
2020/12/10 04:20:26;;;;;;;18.27;12.50;;;;;;;2.21;86.35;98375.16;5073328;28;20234;-66
2020/12/10 04:22:52;;;;;;;21.85;13.18;;;;;;;2.16;86.58;98374.50;5081149;28;20198;-66
2020/12/10 04:25:18;;;;;;;19.65;12.68;;;;;;;2.19;86.99;98369.03;5093404;28;20207;-66
2020/12/10 04:27:44;;;;;;;21.13;13.25;;;;;;;2.18;87.00;98362.88;5092935;28;20274;-65
2020/12/10 04:30:11;;;;;;;23.90;15.05;;;;;;;2.23;86.62;98368.84;5093324;28;20291;-66
2020/12/10 04:32:37;;;;;;;22.27;14.70;;;;;;;2.13;87.23;98364.03;5092817;28;20276;-66
2020/12/10 04:35:03;;;;;;;25.67;14.80;;;;;;;2.14;87.24;98358.63;5093181;28;20618;-65
2020/12/10 04:37:30;;;;;;;22.50;15.57;;;;;;;2.22;86.78;98360.97;5086826;28;20653;-65
2020/12/10 04:39:56;;;;;;;23.38;15.07;;;;;;;2.13;86.98;98359.56;5072640;28;20200;-66
2020/12/10 04:42:23;;;;;;;26.73;14.10;;;;;;;2.12;87.39;98360.47;5072768;28;20242;-66
2020/12/10 04:44:49;;;;;;;25.85;16.38;;;;;;;2.02;87.77;98361.81;5072813;28;20632;-65
2020/12/10 04:47:15;;;;;;;25.92;15.73;;;;;;;2.07;87.93;98362.47;5072487;28;20189;-65
2020/12/10 04:49:42;;;;;;;23.08;15.13;;;;;;;2.09;88.21;98360.63;5073533;28;20212;-65
2020/12/10 04:52:11;;;;;;;27.25;15.57;;;;;;;2.01;88.12;98357.44;5072700;28;20285;-65
2020/12/10 04:54:39;;;;;;;25.77;14.52;;;;;;;1.97;88.71;98361.16;5071965;28;20196;-65
2020/12/10 04:57:09;;;;;;;25.55;15.20;;;;;;;2.03;88.47;98363.53;5081088;28;20657;-66
2020/12/10 04:59:35;;;;;;;28.38;15.75;;;;;;;2.11;88.34;98358.78;5092587;28;20309;-66
2020/12/10 05:02:02;;;;;;;24.65;15.57;;;;;;;2.06;88.10;98358.13;5092800;28;20200;-65
2020/12/10 05:04:28;;;;;;;21.92;14.70;;;;;;;2.10;88.07;98359.69;5092296;28;20257;-66
2020/12/10 05:06:54;;;;;;;26.70;15.63;;;;;;;2.04;88.16;98355.53;5076599;28;20208;-66
2020/12/10 05:09:20;;;;;;;26.45;15.85;;;;;;;2.07;88.49;98359.81;5072378;28;20633;-65
2020/12/10 05:11:47;;;;;;;23.85;15.50;;;;;;;2.05;88.31;98351.06;5072279;28;20268;-66
2020/12/10 05:14:14;;;;;;;24.80;15.30;;;;;;;2.06;88.02;98355.47;5072373;28;20688;-66
2020/12/10 05:16:40;;;;;;;24.70;15.70;;;;;;;1.97;88.43;98350.56;5072383;28;20606;-66
2020/12/10 05:19:27;;;;;;;26.98;17.40;;;;;;;1.96;88.96;98354.13;5074105;28;20201;-66
2020/12/10 05:22:05;;;;;;;27.40;17.08;;;;;;;1.87;89.31;98348.25;5066794;28;20208;-66
2020/12/10 05:24:31;;;;;;;28.23;16.80;;;;;;;1.84;89.27;98351.06;5071575;28;20180;-66
2020/12/10 05:27:21;;;;;;;25.30;16.02;;;;;;;1.84;89.81;98348.41;5072019;28;20639;-65
2020/12/10 05:29:49;;;;;;;26.27;16.45;;;;;;;1.93;89.72;98348.94;5071966;28;20220;-65
2020/12/10 05:32:36;;;;;;;29.70;17.23;;;;;;;1.85;89.70;98350.16;5072078;28;20692;-65
2020/12/10 05:35:20;;;;;;;27.63;17.48;;;;;;;1.86;89.44;98358.97;5071853;28;20181;-65
2020/12/10 05:37:47;;;;;;;26.08;16.35;;;;;;;1.85;89.83;98354.56;5071874;28;20206;-66
2020/12/10 05:40:14;;;;;;;29.20;15.60;;;;;;;1.76;90.00;98358.47;5071898;28;20644;-65
2020/12/10 05:42:42;;;;;;;26.48;16.15;;;;;;;1.75;90.28;98356.75;5071671;28;20195;-65
2020/12/10 05:45:15;;;;;;;29.35;17.52;;;;;;;1.72;90.30;98362.22;5071880;28;20253;-66
2020/12/10 05:47:45;;;;;;;28.70;16.70;;;;;;;1.78;90.48;98369.03;5075263;28;20176;-66
2020/12/10 05:50:12;;;;;;;30.33;16.83;;;;;;;1.74;90.25;98365.66;5096243;28;20291;-65
2020/12/10 05:52:44;;;;;;;23.95;15.65;;;;;;;1.84;90.45;98366.97;5096247;28;20207;-65
2020/12/10 05:55:10;;;;;;;29.10;16.17;;;;;;;1.77;89.65;98357.56;5096063;28;20191;-65
2020/12/10 05:57:43;;;;;;;31.25;16.38;;;;;;;1.80;90.37;98359.22;5095812;28;20200;-66
2020/12/10 06:00:09;;;;;;;26.77;16.65;;;;;;;1.77;90.21;98362.88;5095568;28;20220;-65
2020/12/10 06:02:36;;;;;;;26.33;16.23;;;;;;;1.57;90.57;98371.66;5095720;28;20202;-65
2020/12/10 06:05:03;;;;;;;29.75;15.80;;;;;;;1.80;90.50;98361.88;5095902;28;20206;-66
2020/12/10 06:07:29;;;;;;;26.73;15.95;;;;;;;1.52;91.00;98368.34;5074832;28;20526;-65
2020/12/10 06:09:56;;;;;;;26.52;16.45;;;;;;;1.46;91.54;98371.22;5075278;28;20299;-66
2020/12/10 06:12:24;;;;;;;28.23;17.35;;;;;;;1.57;92.36;98365.50;5075111;28;20279;-66
2020/12/10 06:14:53;;;;;;;33.10;17.13;;;;;;;1.73;91.55;98379.00;5075367;28;20189;-66
2020/12/10 06:17:19;;;;;;;31.83;17.70;;;;;;;1.68;91.06;98376.53;5084546;28;20189;-66
2020/12/10 06:19:45;;;;;;;31.20;18.35;;;;;;;1.70;90.45;98381.75;5074879;28;20236;-67
2020/12/10 06:22:33;;;;;;;29.40;17.50;;;;;;;1.68;90.32;98376.53;5074686;28;20195;-66
2020/12/10 06:24:59;;;;;;;28.75;16.40;;;;;;;1.69;90.85;98375.59;5071522;28;20227;-65
2020/12/10 06:27:28;;;;;;;27.95;16.88;;;;;;;1.70;90.99;98379.09;5074700;28;20653;-66
2020/12/10 06:30:15;;;;;;;30.58;17.00;;;;;;;1.58;90.91;98385.78;5074214;28;20300;-66
2020/12/10 06:32:43;;;;;;;28.48;18.15;;;;;;;1.59;91.31;98375.13;5073940;28;20220;-66
2020/12/10 06:35:25;;;;;;;32.33;18.70;;;;;;;1.66;91.51;98367.75;5074142;28;20203;-66
2020/12/10 06:37:52;;;;;;;31.80;17.02;;;;;;;1.73;91.00;98373.69;5074432;28;20555;-68
2020/12/10 06:40:29;;;;;;;33.83;19.73;;;;;;;1.75;90.67;98372.69;5074238;28;20226;-66
2020/12/10 06:42:55;;;;;;;31.23;19.48;;;;;;;1.78;90.41;98361.06;5078962;28;20188;-66
2020/12/10 06:45:26;;;;;;;29.38;18.13;;;;;;;1.64;90.40;98367.81;5094902;28;20628;-66
2020/12/10 06:47:53;;;;;;;26.90;16.85;;;;;;;1.44;90.59;98359.81;5087762;28;20198;-66
2020/12/10 06:50:24;;;;;;;24.85;16.65;;;;;;;1.39;91.63;98359.16;5076809;28;20511;-66
2020/12/10 06:53:09;;;;;;;34.90;18.88;;;;;;;1.42;91.81;98359.88;5074613;28;20974;-66
2020/12/10 06:55:59;;;;;;;33.55;18.98;;;;;;;1.64;91.44;98359.84;5074325;28;20208;-68
2020/12/10 06:58:46;;;;;;;30.98;17.20;;;;;;;1.60;90.72;98371.50;5074294;28;21033;-65
2020/12/10 07:01:30;;;;;;;30.35;19.13;;;;;;;1.26;91.43;98374.69;5074638;28;20611;-66
2020/12/10 07:04:18;;;;;;;35.75;18.25;;;;;;;1.27;92.54;98376.44;5073922;28;20279;-65
2020/12/10 07:06:44;;;;;;;37.03;18.20;;;;;;;1.34;92.41;98383.22;5073669;28;20196;-65
2020/12/10 07:09:13;;;;;;;30.50;18.65;;;;;;;1.28;92.00;98371.97;5073472;28;20311;-66
2020/12/10 07:11:42;;;;;;;31.67;18.23;;;;;;;1.22;92.21;98376.63;5074356;28;20275;-65
2020/12/10 07:14:25;;;;;;;30.23;18.67;;;;;;;1.24;91.79;98364.16;5074098;28;20204;-66
2020/12/10 07:16:53;;;;;;;26.83;18.30;;;;;;;1.15;92.33;98383.06;5074110;28;20291;-66
2020/12/10 07:19:20;;;;;;;30.23;19.00;;;;;;;1.11;92.58;98367.34;5074255;28;20215;-65
2020/12/10 07:21:46;;;;;;;30.60;18.10;;;;;;;1.15;93.00;98372.44;5074107;28;20634;-66
2020/12/10 07:24:13;;;;;;;35.95;17.90;;;;;;;1.09;92.94;98383.31;5073266;28;20216;-65
2020/12/10 07:26:40;;;;;;;33.22;19.73;;;;;;;1.15;93.06;98382.19;5073493;28;20288;-66
2020/12/10 07:29:06;;;;;;;28.80;16.15;;;;;;;1.07;92.44;98389.59;5074123;28;20236;-65
2020/12/10 07:31:32;;;;;;;29.65;17.63;;;;;;;1.04;92.76;98388.81;5093784;28;20268;-65
2020/12/10 07:34:00;;;;;;;29.70;18.08;;;;;;;0.95;92.80;98396.22;5091177;28;20665;-65
2020/12/10 07:36:27;;;;;;;29.25;18.13;;;;;;;1.03;92.91;98388.84;5077163;28;20199;-65
2020/12/10 07:38:54;;;;;;;32.90;19.58;;;;;;;1.22;92.54;98392.53;5072248;28;20197;-66
2020/12/10 07:41:20;;;;;;;28.88;17.90;;;;;;;1.17;92.18;98398.91;5073612;28;20220;-64
2020/12/10 07:43:48;;;;;;;32.75;18.25;;;;;;;1.22;92.13;98404.88;5073175;28;20208;-64
2020/12/10 07:46:15;;;;;;;26.88;15.77;;;;;;;1.34;91.33;98399.13;5074024;28;20272;-66
2020/12/10 07:48:41;;;;;;;28.48;17.38;;;;;;;1.38;91.00;98407.81;5078471;28;20303;-66
2020/12/10 07:51:09;;;;;;;32.70;18.50;;;;;;;1.37;91.31;98409.59;5093565;28;20199;-65
2020/12/10 07:53:35;;;;;;;26.88;17.13;;;;;;;1.41;90.40;98399.75;5093904;28;20188;-65
2020/12/10 07:56:03;;;;;;;33.85;18.45;;;;;;;1.40;90.48;98398.00;5093935;28;20717;-65
2020/12/10 07:58:35;;;;;;;30.75;19.00;;;;;;;1.43;90.59;98404.06;5082503;28;20230;-65
2020/12/10 08:01:04;;;;;;;30.48;17.58;;;;;;;1.43;90.45;98401.41;5093826;28;20180;-65
2020/12/10 08:03:52;;;;;;;33.25;17.70;;;;;;;1.42;90.14;98402.31;5093693;28;20279;-65
2020/12/10 08:06:19;;;;;;;31.88;18.25;;;;;;;1.46;90.40;98395.97;5084908;28;20283;-65
2020/12/10 08:08:48;;;;;;;29.02;17.85;;;;;;;1.60;90.45;98403.34;5073216;28;20317;-65
2020/12/10 08:11:16;;;;;;;32.40;19.02;;;;;;;1.60;90.16;98400.69;5072557;28;20585;-65
2020/12/10 08:14:06;;;;;;;28.17;17.52;;;;;;;1.61;90.15;98401.59;5078344;28;20669;-65
2020/12/10 08:16:40;;;;;;;27.55;16.63;;;;;;;1.76;90.10;98400.94;5090275;28;20207;-65
2020/12/10 08:19:16;;;;;;;31.08;16.50;;;;;;;1.83;88.69;98402.44;5093175;28;20580;-65
2020/12/10 08:21:43;;;;;;;25.98;16.95;;;;;;;2.17;87.87;98395.69;5091956;28;20267;-65
2020/12/10 08:24:12;;;;;;;26.40;16.42;;;;;;;2.16;86.01;98395.75;5072760;28;20243;-65
2020/12/10 08:26:38;;;;;;;27.48;16.45;;;;;;;2.22;86.33;98391.03;5072665;28;20200;-65
2020/12/10 08:29:04;;;;;;;27.30;15.68;;;;;;;2.19;85.91;98387.63;5072564;28;20204;-65
2020/12/10 08:31:32;;;;;;;25.92;16.15;;;;;;;2.08;86.74;98390.75;5072550;28;20281;-65
2020/12/10 08:33:58;;;;;;;31.95;16.73;;;;;;;1.97;87.15;98390.38;5072560;28;20204;-65
2020/12/10 08:36:26;;;;;;;29.08;16.67;;;;;;;2.00;87.18;98395.53;5072685;28;20220;-66
2020/12/10 08:38:55;;;;;;;26.88;17.27;;;;;;;2.10;87.08;98396.84;5073766;28;20224;-66
2020/12/10 08:41:25;;;;;;;30.50;16.23;;;;;;;2.30;86.13;98406.63;5072449;28;20538;-66
2020/12/10 08:43:57;;;;;;;25.15;15.10;;;;;;;2.35;85.81;98401.97;5072153;28;20268;-66
2020/12/10 08:46:27;;;;;;;40.75;24.15;;;;;;;2.62;85.19;98402.56;5052358;28;20251;-66
2020/12/10 08:48:54;;;;;;;38.67;22.73;;;;;;;2.86;83.67;98397.91;5052283;28;20206;-66
2020/12/10 08:51:20;;;;;;;23.52;16.23;;;;;;;2.72;83.02;98398.53;5052179;28;20220;-66
2020/12/10 08:53:48;;;;;;;24.48;15.85;;;;;;;2.86;83.08;98394.41;5051548;28;20291;-65
2020/12/10 08:56:20;;;;;;;29.70;18.08;;;;;;;3.01;82.14;98393.69;5051625;28;20328;-67
2020/12/10 08:58:47;;;;;;;21.52;13.45;;;;;;;3.05;81.42;98394.38;5071642;28;20275;-65
2020/12/10 09:01:13;;;;;;;20.70;13.60;;;;;;;3.09;80.55;98391.50;5072033;28;20272;-64
2020/12/10 09:03:39;;;;;;;19.35;12.65;;;;;;;3.15;78.99;98395.69;5072098;28;20206;-65
2020/12/10 09:06:05;;;;;;;20.20;11.68;;;;;;;3.06;78.88;98394.34;5071696;28;20213;-65
2020/12/10 09:08:32;;;;;;;19.85;12.45;;;;;;;3.20;78.83;98387.50;5073089;28;20258;-65
2020/12/10 09:10:58;;;;;;;18.67;13.02;;;;;;;3.46;77.58;98388.88;5091546;28;20275;-66
2020/12/10 09:13:26;;;;;;;24.85;11.82;;;;;;;3.36;77.26;98398.28;5091866;28;20200;-66
2020/12/10 09:15:52;;;;;;;18.27;11.07;;;;;;;3.49;75.76;98394.09;5089956;28;20188;-67
2020/12/10 09:18:19;;;;;;;23.70;11.10;;;;;;;3.53;75.95;98390.34;5091645;28;20237;-66
2020/12/10 09:20:45;;;;;;;13.38;9.05;;;;;;;3.62;73.76;98389.91;5092076;28;20581;-66
2020/12/10 09:23:15;;;;;;;13.52;8.85;;;;;;;3.73;73.05;98392.88;5091461;28;20232;-66
2020/12/10 09:25:41;;;;;;;14.88;8.52;;;;;;;3.67;72.31;98395.84;5091876;28;20199;-66
2020/12/10 09:28:09;;;;;;;13.60;8.48;;;;;;;3.30;72.53;98388.78;5079436;28;20196;-65
2020/12/10 09:30:37;;;;;;;11.73;7.20;;;;;;;3.54;71.78;98381.41;5071363;28;20274;-65
2020/12/10 09:33:04;;;;;;;13.13;8.32;;;;;;;3.59;71.90;98399.81;5071370;28;20237;-65
2020/12/10 09:35:31;;;;;;;13.40;11.52;;;;;;;3.71;70.54;98393.91;5071804;28;20291;-65
2020/12/10 09:37:59;;;;;;;18.33;8.75;;;;;;;3.59;70.87;98397.16;5071359;28;20219;-65
2020/12/10 09:40:28;;;;;;;11.75;7.40;;;;;;;3.38;71.47;98402.56;5071530;28;20200;-66
2020/12/10 09:42:55;;;;;;;12.00;7.80;;;;;;;3.54;70.65;98402.69;5071627;28;20223;-66
2020/12/10 09:45:21;;;;;;;21.00;9.07;;;;;;;3.50;71.09;98401.97;5071218;28;20197;-66
2020/12/10 09:48:03;;;;;;;12.43;8.40;;;;;;;3.64;69.73;98400.44;5071169;28;20225;-66
2020/12/10 09:50:45;;;;;;;13.65;7.78;;;;;;;3.78;69.29;98397.97;5013199;28;20214;-65
2020/12/10 09:53:15;;;;;;;12.65;8.77;;;;;;;3.26;70.91;98400.53;4974864;28;20201;-65
2020/12/10 09:56:09;;;;;;;15.00;8.50;;;;;;;3.37;70.52;98399.97;4970316;28;20258;-65
2020/12/10 09:58:34;;;;;;;10.10;7.70;;;;;;;3.63;70.22;98396.06;4969317;28;20225;-65
2020/12/10 10:01:01;;;;;;;14.57;11.35;;;;;;;3.77;69.34;98382.94;4972700;28;20674;-65
2020/12/10 10:03:28;;;;;;;16.15;9.82;;;;;;;3.71;69.84;98396.56;4971290;28;20247;-66
2020/12/10 10:05:55;;;;;;;16.02;9.38;;;;;;;3.90;69.03;98393.84;4962765;28;20205;-66
2020/12/10 10:08:23;;;;;;;12.35;7.88;;;;;;;3.71;69.51;98394.75;4950730;29;20305;-64
2020/12/10 10:10:50;;;;;;;10.98;8.32;;;;;;;3.53;70.63;98391.19;4950949;29;20264;-65
2020/12/10 10:13:16;;;;;;;15.98;8.85;;;;;;;3.36;71.36;98385.81;4950801;29;20264;-66
2020/12/10 10:15:45;;;;;;;11.65;7.60;;;;;;;3.37;71.34;98384.91;4950955;29;20556;-66
2020/12/10 10:18:11;;;;;;;11.23;7.88;;;;;;;3.59;70.29;98387.34;4951702;28;20212;-65
2020/12/10 10:20:39;;;;;;;14.07;8.32;;;;;;;3.61;70.28;98380.16;4973532;28;20230;-66
2020/12/10 10:23:06;;;;;;;14.13;8.57;;;;;;;3.65;70.52;98375.56;4989671;28;20203;-65
2020/12/10 10:25:32;;;;;;;14.25;9.57;;;;;;;3.75;70.22;98374.16;4978797;28;20678;-66
2020/12/10 10:27:59;;;;;;;9.45;6.80;;;;;;;3.87;69.65;98378.88;5009413;28;20214;-66
2020/12/10 10:30:26;;;;;;;23.67;8.93;;;;;;;3.78;70.41;98374.03;5061326;28;20303;-66
2020/12/10 10:32:52;;;;;;;10.68;7.60;;;;;;;3.55;69.96;98372.50;5091303;28;20207;-67
2020/12/10 10:35:19;;;;;;;12.30;8.25;;;;;;;3.46;70.71;98379.13;5093640;28;20568;-66
2020/12/10 10:37:47;;;;;;;18.13;8.43;;;;;;;3.56;70.15;98379.53;5094637;28;20206;-66
2020/12/10 10:40:13;;;;;;;10.07;6.93;;;;;;;3.47;70.21;98383.50;5095069;28;20275;-66
2020/12/10 10:42:40;;;;;;;9.90;6.78;;;;;;;3.20;70.10;98377.72;5095110;28;20206;-66
2020/12/10 10:45:07;;;;;;;14.25;7.63;;;;;;;3.24;71.07;98373.13;5095058;28;20204;-66
2020/12/10 10:47:34;;;;;;;9.10;6.43;;;;;;;3.43;70.21;98378.41;5094563;28;20219;-66
2020/12/10 10:50:00;;;;;;;12.77;7.22;;;;;;;3.33;70.72;98373.53;5092322;28;20262;-66
2020/12/10 10:52:26;;;;;;;11.85;8.15;;;;;;;3.27;71.35;98380.94;5075354;28;20250;-66
2020/12/10 10:54:54;;;;;;;11.25;7.22;;;;;;;3.36;70.60;98384.97;5074135;28;20250;-66
2020/12/10 10:57:20;;;;;;;8.98;6.95;;;;;;;3.10;71.25;98385.28;5075215;28;20192;-65
2020/12/10 10:59:46;;;;;;;10.95;7.20;;;;;;;3.29;71.31;98384.41;5079424;28;20219;-65
2020/12/10 11:02:13;;;;;;;12.63;8.45;;;;;;;3.43;71.10;98383.72;5094574;28;20257;-65
2020/12/10 11:04:42;;;;;;;21.05;9.45;;;;;;;3.74;70.15;98377.78;5094829;28;20180;-65
2020/12/10 11:07:09;;;;;;;10.82;7.78;;;;;;;3.73;69.99;98374.25;5077811;28;20605;-65
2020/12/10 11:09:35;;;;;;;16.60;9.05;;;;;;;3.81;69.68;98373.84;5074099;28;20228;-65
2020/12/10 11:12:02;;;;;;;15.90;7.05;;;;;;;3.79;69.58;98377.53;5074310;28;20188;-65
2020/12/10 11:14:29;;;;;;;11.68;6.88;;;;;;;3.60;70.01;98372.28;5073653;28;20254;-65
2020/12/10 11:16:56;;;;;;;12.95;7.95;;;;;;;3.88;69.36;98372.59;5073849;28;20235;-65
2020/12/10 11:19:23;;;;;;;14.95;9.55;;;;;;;3.63;70.52;98367.66;5074536;28;20236;-65
2020/12/10 11:21:49;;;;;;;14.38;8.43;;;;;;;3.51;70.87;98370.94;5075308;28;20199;-65
2020/12/10 11:24:16;;;;;;;12.60;8.52;;;;;;;3.73;70.15;98368.03;5053736;28;20296;-66
2020/12/10 11:26:42;;;;;;;13.65;10.82;;;;;;;3.52;70.74;98368.16;5053636;28;20276;-66
2020/12/10 11:29:09;;;;;;;9.57;7.28;;;;;;;3.58;70.03;98364.34;5068972;28;20350;-66
2020/12/10 11:31:36;;;;;;;12.15;8.80;;;;;;;3.85;69.31;98364.78;5086719;28;20206;-65